Time;durP1;ratioP1;P1;durP2;ratioP2;P2;SDS_P1;SDS_P2;PMS_P1;PMS_P2;Temp;Humidity;BMP_temperature;BMP_pressure;BME280_temperature;BME280_humidity;BME280_pressure;Samples;Min_cycle;Max_cycle;Signal;HPM_P1;HPM_P2
2022/11/01 00:01:51;;;;;;;14.50;6.93;;;;;;;13.39;100.00;100797.47;5111727;28;20043;-57
2022/11/01 00:04:20;;;;;;;12.10;6.38;;;;;;;13.40;100.00;100785.09;5109544;28;20050;-56
2022/11/01 00:06:49;;;;;;;12.23;6.90;;;;;;;13.48;100.00;100786.19;5113678;28;20536;-56
2022/11/01 00:09:17;;;;;;;15.35;6.72;;;;;;;13.52;100.00;100777.06;5113815;28;20131;-56
2022/11/01 00:11:46;;;;;;;13.27;6.35;;;;;;;13.62;100.00;100774.53;5110707;28;20104;-56
2022/11/01 00:14:17;;;;;;;12.40;6.05;;;;;;;13.62;100.00;100769.25;5110406;28;20138;-56
2022/11/01 00:16:46;;;;;;;13.93;5.80;;;;;;;13.62;100.00;100769.25;5110130;28;20044;-57
2022/11/01 00:19:14;;;;;;;15.02;6.60;;;;;;;13.71;100.00;100764.19;5109667;28;20134;-56
2022/11/01 00:21:42;;;;;;;14.07;5.55;;;;;;;13.66;100.00;100761.88;5110852;28;20456;-56
2022/11/01 00:24:11;;;;;;;13.88;5.63;;;;;;;13.74;100.00;100762.13;5110027;28;20054;-57
2022/11/01 00:26:39;;;;;;;13.88;6.05;;;;;;;13.84;100.00;100762.25;5112044;28;20051;-55
2022/11/01 00:29:07;;;;;;;11.38;5.75;;;;;;;13.94;100.00;100760.53;5110986;28;20044;-56
2022/11/01 00:31:36;;;;;;;14.63;5.93;;;;;;;13.96;100.00;100758.63;5112791;28;20125;-56
2022/11/01 00:34:05;;;;;;;14.98;5.82;;;;;;;13.88;100.00;100749.59;5110131;28;20558;-56
2022/11/01 00:36:34;;;;;;;12.73;5.40;;;;;;;13.98;100.00;100745.28;5110680;28;20953;-56
2022/11/01 00:39:02;;;;;;;12.70;6.25;;;;;;;14.05;100.00;100740.31;5109446;28;20769;-56
2022/11/01 00:41:31;;;;;;;14.30;5.95;;;;;;;13.97;100.00;100728.53;5110269;28;20630;-56
2022/11/01 00:43:59;;;;;;;15.02;5.88;;;;;;;13.94;100.00;100728.81;5110453;28;20069;-56
2022/11/01 00:46:27;;;;;;;10.85;5.50;;;;;;;13.99;100.00;100721.34;5110165;28;20143;-56
2022/11/01 00:48:57;;;;;;;12.05;6.20;;;;;;;13.99;100.00;100728.44;5113666;28;20047;-56
2022/11/01 00:51:25;;;;;;;14.43;5.90;;;;;;;14.04;100.00;100731.53;5112056;28;20059;-56
2022/11/01 00:53:53;;;;;;;12.82;6.32;;;;;;;14.01;100.00;100729.97;5109052;28;20126;-54
2022/11/01 00:56:21;;;;;;;14.50;6.38;;;;;;;14.00;100.00;100720.38;5112221;28;20075;-54
2022/11/01 00:58:49;;;;;;;15.40;6.25;;;;;;;14.09;100.00;100726.72;5113452;28;20055;-55
2022/11/01 01:01:17;;;;;;;14.80;6.13;;;;;;;14.16;100.00;100719.94;5113251;28;20367;-55
2022/11/01 01:03:45;;;;;;;13.40;6.28;;;;;;;14.14;100.00;100713.13;5111440;28;20060;-55
2022/11/01 01:06:15;;;;;;;16.02;6.45;;;;;;;14.15;100.00;100714.78;5110218;28;20053;-55
2022/11/01 01:08:43;;;;;;;13.45;6.82;;;;;;;14.16;100.00;100706.72;5108040;28;20054;-55
2022/11/01 01:11:11;;;;;;;15.88;7.00;;;;;;;14.23;100.00;100701.78;5112167;28;20047;-54
2022/11/01 01:13:41;;;;;;;12.82;6.85;;;;;;;14.21;100.00;100716.94;5113122;28;20039;-54
2022/11/01 01:16:11;;;;;;;16.30;6.38;;;;;;;14.16;100.00;100711.19;5112981;28;20044;-57
2022/11/01 01:18:39;;;;;;;14.63;6.25;;;;;;;14.13;100.00;100707.00;5111704;28;20075;-54
2022/11/01 01:21:08;;;;;;;14.27;6.15;;;;;;;14.14;100.00;100705.19;5111130;28;20469;-54
2022/11/01 01:23:37;;;;;;;15.10;6.35;;;;;;;14.13;100.00;100707.00;5109126;28;20046;-56
2022/11/01 01:26:07;;;;;;;11.55;6.00;;;;;;;14.12;100.00;100700.00;5112615;28;20055;-55
2022/11/01 01:28:35;;;;;;;12.23;6.15;;;;;;;14.10;100.00;100691.38;5112770;28;20378;-54
2022/11/01 01:31:12;;;;;;;12.30;6.07;;;;;;;14.20;100.00;100692.28;5111499;28;20052;-56
2022/11/01 01:33:41;;;;;;;13.45;6.13;;;;;;;14.17;100.00;100692.53;5108815;28;20047;-54
2022/11/01 01:36:09;;;;;;;13.57;5.60;;;;;;;14.16;100.00;100692.69;5111669;28;20445;-55
2022/11/01 01:38:39;;;;;;;14.50;6.13;;;;;;;14.17;100.00;100686.44;5107286;28;20043;-55
2022/11/01 01:43:52;;;;;;;13.30;5.45;;;;;;;14.16;100.00;100687.38;5109766;28;20056;-55
2022/11/01 01:46:21;;;;;;;12.77;6.07;;;;;;;14.19;100.00;100685.34;5112291;28;20052;-55
2022/11/01 01:48:55;;;;;;;15.15;5.68;;;;;;;14.17;100.00;100681.97;5112258;28;20564;-55
2022/11/01 01:51:28;;;;;;;11.90;5.70;;;;;;;14.18;100.00;100683.66;5112010;28;20051;-55
2022/11/01 01:53:59;;;;;;;10.98;5.18;;;;;;;14.17;100.00;100689.06;5108345;28;20563;-54
2022/11/01 01:56:31;;;;;;;12.52;5.57;;;;;;;14.20;100.00;100678.22;5108903;28;20044;-55
2022/11/01 01:59:05;;;;;;;16.83;6.03;;;;;;;14.22;100.00;100675.44;5109875;28;20055;-55
2022/11/01 02:01:37;;;;;;;11.80;5.63;;;;;;;14.19;100.00;100673.91;5111292;28;20043;-55
2022/11/01 02:04:11;;;;;;;12.35;5.97;;;;;;;14.23;100.00;100677.13;5108935;28;20043;-54
2022/11/01 02:06:40;;;;;;;15.65;6.07;;;;;;;14.24;100.00;100676.19;5109499;28;20040;-54
2022/11/01 02:09:10;;;;;;;12.30;6.18;;;;;;;14.27;100.00;100671.44;5109814;28;20487;-54
2022/11/01 02:11:38;;;;;;;13.85;5.70;;;;;;;14.24;100.00;100677.00;5109917;28;20044;-53
2022/11/01 02:14:06;;;;;;;15.30;5.80;;;;;;;14.20;100.00;100659.72;5109630;28;20086;-54
2022/11/01 02:16:52;;;;;;;13.05;5.40;;;;;;;14.22;100.00;100659.59;5108657;28;20055;-54
2022/11/01 02:19:55;;;;;;;15.07;6.25;;;;;;;14.29;100.00;100661.59;5108418;28;20044;-54
2022/11/01 02:22:33;;;;;;;13.32;5.15;;;;;;;14.31;100.00;100664.13;5079281;28;20052;-56
2022/11/01 02:25:27;;;;;;;12.40;5.63;;;;;;;14.25;100.00;100665.47;5108047;28;20544;-55
2022/11/01 02:28:19;;;;;;;14.80;5.57;;;;;;;14.28;100.00;100665.19;5110728;28;20054;-55
2022/11/01 02:31:00;;;;;;;11.70;5.10;;;;;;;14.23;100.00;100669.22;5109318;28;20048;-55
2022/11/01 02:33:34;;;;;;;12.98;5.60;;;;;;;14.24;100.00;100670.88;5108339;28;20036;-55
2022/11/01 02:36:07;;;;;;;9.93;4.95;;;;;;;14.19;100.00;100671.25;5109147;28;20104;-55
2022/11/01 02:38:42;;;;;;;16.38;5.55;;;;;;;14.20;100.00;100670.28;5108324;28;20048;-56
2022/11/01 02:41:13;;;;;;;13.35;5.38;;;;;;;14.20;100.00;100675.59;5109109;28;20055;-56
2022/11/01 02:43:49;;;;;;;14.32;5.40;;;;;;;14.21;100.00;100679.91;5109035;28;20047;-54
2022/11/01 02:49:23;;;;;;;12.40;5.82;;;;;;;14.26;100.00;100687.47;5048470;28;20045;-52
2022/11/01 02:51:54;;;;;;;11.82;5.88;;;;;;;14.28;100.00;100682.91;5047851;28;20622;-52
2022/11/01 02:54:26;;;;;;;12.88;5.10;;;;;;;14.35;100.00;100679.59;5078184;28;20055;-51
2022/11/01 02:56:58;;;;;;;13.23;5.72;;;;;;;14.31;100.00;100675.53;5112073;28;20051;-52
2022/11/01 02:59:29;;;;;;;12.88;5.93;;;;;;;14.33;100.00;100672.78;5114724;28;20089;-51
2022/11/01 03:02:05;;;;;;;11.57;5.57;;;;;;;14.37;100.00;100669.72;5115443;28;20051;-52
2022/11/01 03:04:35;;;;;;;11.30;5.70;;;;;;;14.35;100.00;100662.88;5115585;28;20035;-53
2022/11/01 03:07:10;;;;;;;11.00;5.13;;;;;;;14.37;100.00;100666.25;5115432;28;20494;-56
2022/11/01 03:09:40;;;;;;;11.63;5.18;;;;;;;14.45;100.00;100668.22;5115383;28;20044;-55
2022/11/01 03:12:16;;;;;;;14.43;5.72;;;;;;;14.43;100.00;100662.25;5113082;28;20518;-55
2022/11/01 03:14:58;;;;;;;10.55;5.05;;;;;;;14.43;100.00;100668.38;5112893;28;20047;-56
2022/11/01 03:17:33;;;;;;;11.27;5.55;;;;;;;14.45;100.00;100668.22;5115092;28;20071;-55
2022/11/01 03:20:08;;;;;;;12.40;4.72;;;;;;;14.54;100.00;100665.66;5115161;28;20096;-54
2022/11/01 03:22:43;;;;;;;13.88;5.07;;;;;;;14.53;100.00;100660.50;5115183;28;20055;-53
2022/11/01 03:28:04;;;;;;;12.07;4.60;;;;;;;14.65;100.00;100656.81;5113573;28;20444;-53
2022/11/01 03:30:34;;;;;;;12.48;4.43;;;;;;;14.77;100.00;100668.19;5111158;28;20101;-53
2022/11/01 03:33:04;;;;;;;10.88;4.28;;;;;;;14.75;100.00;100661.34;5111699;28;20494;-55
2022/11/01 03:35:38;;;;;;;14.02;4.97;;;;;;;14.82;100.00;100659.84;5111295;28;20044;-54
2022/11/01 03:38:10;;;;;;;12.70;4.60;;;;;;;14.84;100.00;100669.31;5114422;28;20054;-55
2022/11/01 03:40:44;;;;;;;10.20;4.40;;;;;;;14.81;100.00;100671.41;5114340;28;20425;-54
2022/11/01 03:43:16;;;;;;;12.40;4.63;;;;;;;14.79;100.00;100666.25;5111205;28;20116;-55
2022/11/01 03:45:45;;;;;;;12.00;4.45;;;;;;;14.81;100.00;100668.78;5111446;28;20672;-55
2022/11/01 03:48:13;;;;;;;11.30;4.68;;;;;;;14.79;100.00;100679.50;5110955;28;20048;-54
2022/11/01 03:50:48;;;;;;;10.02;4.38;;;;;;;14.77;100.00;100683.25;5112657;28;20433;-53
2022/11/01 03:53:17;;;;;;;9.85;4.07;;;;;;;14.75;100.00;100680.72;5114773;28;20360;-52
2022/11/01 03:55:45;;;;;;;10.25;4.43;;;;;;;14.79;100.00;100684.78;5112230;28;20067;-52
2022/11/01 03:58:14;;;;;;;11.02;4.50;;;;;;;14.80;100.00;100681.16;5111277;28;20096;-52
2022/11/01 04:00:44;;;;;;;8.93;4.13;;;;;;;14.85;100.00;100694.00;5113566;28;20040;-52
2022/11/01 04:03:13;;;;;;;10.43;4.57;;;;;;;14.85;100.00;100702.78;5110203;28;20067;-54
2022/11/01 04:05:42;;;;;;;10.55;4.53;;;;;;;14.92;100.00;100707.56;5110517;28;20572;-53
2022/11/01 04:08:12;;;;;;;12.85;4.82;;;;;;;14.86;100.00;100715.06;5112640;28;20138;-52
2022/11/01 04:10:40;;;;;;;9.93;4.00;;;;;;;14.81;100.00;100716.41;5114036;28;20039;-50
2022/11/01 04:13:08;;;;;;;9.55;4.38;;;;;;;14.84;100.00;100727.56;5112439;28;20405;-50
2022/11/01 04:21:12;;;;;;;11.00;4.47;;;;;;;14.85;100.00;100741.66;5114020;28;20044;-53
2022/11/01 04:23:42;;;;;;;10.13;4.13;;;;;;;14.90;100.00;100750.03;5113893;28;20048;-54
2022/11/01 04:26:12;;;;;;;10.07;4.35;;;;;;;14.85;100.00;100757.53;5112792;28;20043;-52
2022/11/01 04:28:40;;;;;;;10.73;3.78;;;;;;;14.82;100.00;100761.28;5113617;28;20070;-52
2022/11/01 04:31:08;;;;;;;9.30;3.38;;;;;;;14.82;100.00;100771.03;5113885;28;20507;-56
2022/11/01 04:33:36;;;;;;;8.05;3.17;;;;;;;14.83;100.00;100783.28;5110108;28;20524;-55
2022/11/01 04:36:05;;;;;;;9.90;3.10;;;;;;;14.80;100.00;100779.09;5109632;27;20530;-56
2022/11/01 04:38:33;;;;;;;6.05;2.28;;;;;;;14.79;100.00;100793.31;5109880;28;20292;-57
2022/11/01 04:41:03;;;;;;;8.10;2.03;;;;;;;14.73;100.00;100798.28;5111936;28;20093;-57
2022/11/01 04:43:31;;;;;;;5.32;1.80;;;;;;;14.66;100.00;100801.44;5113941;28;20047;-51
2022/11/01 04:45:59;;;;;;;8.20;1.30;;;;;;;14.66;100.00;100816.47;5110997;28;20130;-54
2022/11/01 04:48:27;;;;;;;3.80;1.10;;;;;;;14.64;100.00;100811.31;5109069;28;20114;-56
2022/11/01 04:50:55;;;;;;;5.47;1.13;;;;;;;14.54;100.00;100826.22;5110368;28;20118;-55
2022/11/01 04:53:23;;;;;;;3.63;0.95;;;;;;;14.55;100.00;100835.88;5111337;28;20101;-57
2022/11/01 04:55:51;;;;;;;3.83;0.98;;;;;;;14.52;100.00;100836.13;5111074;28;20055;-56
2022/11/01 04:58:21;;;;;;;2.70;0.80;;;;;;;14.45;100.00;100832.28;5109219;28;20494;-55
2022/11/01 05:00:49;;;;;;;3.25;0.80;;;;;;;14.42;100.00;100843.94;5109340;27;20055;-55
2022/11/01 05:03:17;;;;;;;5.78;0.98;;;;;;;14.32;100.00;100858.91;5108954;28;20491;-56
2022/11/01 05:05:45;;;;;;;4.32;1.35;;;;;;;14.23;100.00;100860.47;5110138;28;20043;-55
2022/11/01 05:08:14;;;;;;;2.50;0.80;;;;;;;14.13;100.00;100876.22;5111410;28;20092;-55
2022/11/01 05:10:44;;;;;;;3.30;0.85;;;;;;;14.10;100.00;100878.31;5110228;28;20043;-55
2022/11/01 05:13:13;;;;;;;3.15;0.90;;;;;;;14.08;100.00;100882.84;5107546;28;20407;-55
2022/11/01 05:15:42;;;;;;;4.70;1.15;;;;;;;14.00;100.00;100886.97;5109842;28;20078;-54
2022/11/01 05:18:31;;;;;;;3.97;0.70;;;;;;;14.00;100.00;100892.25;5108755;28;20565;-55
2022/11/01 05:20:59;;;;;;;4.35;1.20;;;;;;;13.90;100.00;100899.22;5109801;28;20051;-56
2022/11/01 05:23:27;;;;;;;5.43;0.90;;;;;;;13.85;100.00;100909.28;5109142;28;20044;-55
2022/11/01 05:25:56;;;;;;;5.40;1.10;;;;;;;13.82;100.00;100907.72;5109176;28;20067;-55
2022/11/01 05:28:24;;;;;;;5.45;1.10;;;;;;;13.72;100.00;100914.69;5109529;28;20051;-55
2022/11/01 05:30:54;;;;;;;2.15;0.68;;;;;;;13.69;100.00;100914.94;5109995;28;20066;-56
2022/11/01 05:33:22;;;;;;;2.65;0.90;;;;;;;13.62;100.00;100925.16;5108550;28;20051;-56
2022/11/01 05:35:50;;;;;;;3.97;0.98;;;;;;;13.59;100.00;100930.66;5109524;28;20119;-56
2022/11/01 05:38:18;;;;;;;2.97;0.90;;;;;;;13.53;100.00;100923.19;5112444;28;20096;-56
2022/11/01 05:40:46;;;;;;;2.80;1.10;;;;;;;13.48;100.00;100918.28;5112522;28;20039;-56
2022/11/01 05:43:17;;;;;;;2.95;0.85;;;;;;;13.48;100.00;100920.06;5111301;28;20048;-55
2022/11/01 05:45:47;;;;;;;4.80;1.10;;;;;;;13.49;100.00;100930.50;5110157;28;20047;-56
2022/11/01 05:48:16;;;;;;;3.75;0.90;;;;;;;13.42;100.00;100939.88;5111722;28;20039;-56
2022/11/01 05:50:45;;;;;;;6.03;0.93;;;;;;;13.32;100.00;100944.13;5109781;28;20134;-55
2022/11/01 05:53:14;;;;;;;5.10;1.10;;;;;;;13.24;100.00;100949.13;5110092;28;20040;-56
2022/11/01 05:55:42;;;;;;;4.32;1.08;;;;;;;13.26;100.00;100948.06;5111383;28;20043;-56
2022/11/01 05:58:11;;;;;;;3.67;1.15;;;;;;;13.22;100.00;100954.53;5109477;28;20493;-51
2022/11/01 06:00:39;;;;;;;3.38;0.98;;;;;;;13.29;100.00;100955.78;5111175;28;20040;-53
2022/11/01 06:03:07;;;;;;;2.97;0.90;;;;;;;13.22;100.00;100959.81;5112444;28;20108;-53
2022/11/01 06:05:37;;;;;;;3.15;0.80;;;;;;;13.17;100.00;100960.16;5112336;28;20071;-54
2022/11/01 06:08:06;;;;;;;4.32;1.00;;;;;;;13.13;100.00;100957.84;5110190;28;20044;-54
2022/11/01 06:10:34;;;;;;;5.90;1.20;;;;;;;13.10;100.00;100968.66;5109046;28;20035;-53
2022/11/01 06:13:03;;;;;;;4.90;0.93;;;;;;;13.11;100.00;100973.81;5112380;28;20088;-56
2022/11/01 06:15:31;;;;;;;5.32;0.90;;;;;;;13.04;100.00;100972.59;5112294;28;20050;-50
2022/11/01 06:18:08;;;;;;;4.95;1.00;;;;;;;13.04;100.00;100972.59;5112090;28;20076;-56
2022/11/01 06:20:38;;;;;;;5.78;0.80;;;;;;;13.00;100.00;100984.31;5112178;28;20039;-55
2022/11/01 06:23:10;;;;;;;6.63;1.00;;;;;;;12.96;100.00;100985.50;5111040;28;20171;-50
2022/11/01 06:25:38;;;;;;;6.03;0.82;;;;;;;12.89;100.00;100979.81;5110345;28;20545;-48
2022/11/01 06:28:07;;;;;;;6.47;1.10;;;;;;;12.86;100.00;100977.41;5114959;28;20043;-49
2022/11/01 06:30:37;;;;;;;5.18;1.17;;;;;;;12.82;100.00;100983.88;5115540;28;20074;-50
2022/11/01 06:33:08;;;;;;;5.75;1.17;;;;;;;12.79;100.00;100986.75;5115463;27;20437;-50
2022/11/01 06:35:38;;;;;;;8.77;1.10;;;;;;;12.75;100.00;100998.44;5115947;28;20356;-55
2022/11/01 06:38:07;;;;;;;7.38;1.00;;;;;;;12.71;100.00;101015.44;5115871;28;20040;-49
2022/11/01 06:40:35;;;;;;;5.72;1.33;;;;;;;12.70;100.00;101025.19;5115804;28;20042;-52
2022/11/01 06:43:06;;;;;;;6.43;1.10;;;;;;;12.67;100.00;101022.75;5115597;28;20055;-56
2022/11/01 06:45:34;;;;;;;4.38;0.95;;;;;;;12.69;100.00;101015.56;5112872;28;20063;-55
2022/11/01 06:48:03;;;;;;;3.53;1.00;;;;;;;12.70;100.00;101019.91;5112577;27;20433;-55
2022/11/01 06:50:32;;;;;;;5.18;1.10;;;;;;;12.73;100.00;101018.84;5113489;28;20146;-52
2022/11/01 06:53:02;;;;;;;5.57;1.10;;;;;;;12.67;100.00;101020.13;5115716;28;20044;-52
2022/11/01 06:55:30;;;;;;;4.60;1.02;;;;;;;12.71;100.00;101021.59;5115763;28;20088;-47
2022/11/01 06:58:01;;;;;;;5.45;1.15;;;;;;;12.66;100.00;101040.38;5114914;28;20050;-52
2022/11/01 07:00:31;;;;;;;5.68;1.65;;;;;;;12.64;100.00;101044.94;5112008;28;20039;-53
2022/11/01 07:03:00;;;;;;;12.68;1.48;;;;;;;12.58;100.00;101045.34;5114426;28;20043;-51
2022/11/01 07:05:29;;;;;;;4.65;1.00;;;;;;;12.60;100.00;101045.28;5111461;28;20059;-50
2022/11/01 07:08:07;;;;;;;8.73;1.20;;;;;;;12.57;100.00;101051.59;5112825;28;20078;-52
2022/11/01 07:10:36;;;;;;;8.80;1.35;;;;;;;12.53;100.00;101060.69;5110928;28;20039;-52
2022/11/01 07:13:06;;;;;;;7.20;1.45;;;;;;;12.61;100.00;101071.53;5113447;28;20062;-53
2022/11/01 07:15:35;;;;;;;9.98;1.65;;;;;;;12.63;100.00;101074.91;5115306;28;20071;-51
2022/11/01 07:18:05;;;;;;;6.30;1.50;;;;;;;12.71;100.00;101081.41;5114749;28;20043;-52
2022/11/01 07:20:39;;;;;;;11.70;2.10;;;;;;;12.70;100.00;101083.22;5114964;28;20059;-53
2022/11/01 07:23:12;;;;;;;9.43;1.70;;;;;;;12.70;100.00;101091.16;5115209;28;20097;-55
2022/11/01 07:25:40;;;;;;;7.20;1.52;;;;;;;12.78;100.00;101093.25;5115040;28;20055;-56
2022/11/01 07:28:09;;;;;;;12.85;1.50;;;;;;;12.87;100.00;101097.88;5115043;28;20051;-55
2022/11/01 07:30:38;;;;;;;11.75;1.60;;;;;;;12.90;100.00;101102.94;5114811;28;20048;-57
2022/11/01 07:33:06;;;;;;;12.32;1.88;;;;;;;12.99;100.00;101101.44;5114884;28;20039;-55
2022/11/01 07:35:35;;;;;;;12.38;1.40;;;;;;;13.01;100.00;101092.44;5114987;28;20093;-53
2022/11/01 07:38:03;;;;;;;8.30;1.40;;;;;;;13.03;100.00;101108.19;5114215;28;20532;-54
2022/11/01 07:40:40;;;;;;;10.52;1.60;;;;;;;13.23;100.00;101098.00;5114716;28;20047;-53
2022/11/01 07:43:08;;;;;;;8.30;1.23;;;;;;;13.24;100.00;101116.38;5114702;28;20141;-54
2022/11/01 07:45:36;;;;;;;8.13;1.33;;;;;;;13.33;100.00;101110.44;5114682;28;20039;-51
2022/11/01 07:48:11;;;;;;;7.75;1.63;;;;;;;13.35;100.00;101116.47;5114743;28;20079;-54
2022/11/01 07:50:40;;;;;;;10.43;1.55;;;;;;;13.44;100.00;101124.66;5114494;27;20044;-53
2022/11/01 07:53:10;;;;;;;9.70;1.48;;;;;;;13.49;100.00;101119.91;5114667;28;20063;-52
2022/11/01 07:55:41;;;;;;;12.35;1.45;;;;;;;13.46;100.00;101128.91;5114746;28;20109;-54
2022/11/01 07:58:10;;;;;;;8.82;1.60;;;;;;;13.56;100.00;101121.13;5113912;28;20062;-53
2022/11/01 08:00:39;;;;;;;8.85;1.73;;;;;;;13.68;100.00;101130.78;5111299;28;20039;-53
2022/11/01 08:03:09;;;;;;;9.18;1.67;;;;;;;13.74;100.00;101126.03;5110360;28;20047;-54
2022/11/01 08:05:37;;;;;;;7.55;1.20;;;;;;;13.81;100.00;101130.75;5110863;28;20043;-55
2022/11/01 08:08:06;;;;;;;10.52;1.55;;;;;;;13.99;100.00;101139.09;5113186;28;20040;-53
2022/11/01 08:10:36;;;;;;;11.57;1.60;;;;;;;13.87;100.00;101140.03;5110000;28;20040;-57
2022/11/01 08:13:09;;;;;;;8.27;1.35;;;;;;;13.96;100.00;101141.97;5110861;28;20088;-57
2022/11/01 08:15:37;;;;;;;11.75;2.00;;;;;;;13.97;100.00;101143.66;5111010;28;20451;-52
2022/11/01 08:18:05;;;;;;;12.13;1.88;;;;;;;14.09;100.00;101143.72;5110050;28;20075;-57
2022/11/01 08:20:34;;;;;;;11.07;1.77;;;;;;;14.12;100.00;101146.13;5110070;28;20052;-54
2022/11/01 08:23:03;;;;;;;9.18;1.70;;;;;;;14.15;100.00;101151.16;5110479;28;20457;-54
2022/11/01 08:25:32;;;;;;;7.95;1.55;;;;;;;14.33;100.00;101155.06;5113614;28;20071;-53
2022/11/01 08:28:06;;;;;;;9.63;1.50;;;;;;;14.24;100.00;101158.41;5113863;28;20048;-52
2022/11/01 08:30:37;;;;;;;12.43;1.95;;;;;;;14.02;100.00;101161.84;5113848;28;20490;-54
2022/11/01 08:33:06;;;;;;;11.82;2.60;;;;;;;14.13;100.00;101163.66;5113687;28;20044;-54
2022/11/01 08:35:35;;;;;;;11.98;1.83;;;;;;;14.28;100.00;101173.09;5113561;28;20036;-51
2022/11/01 08:38:03;;;;;;;11.93;2.13;;;;;;;14.31;100.00;101174.66;5112439;28;20043;-54
2022/11/01 08:40:32;;;;;;;12.88;2.45;;;;;;;14.43;100.00;101171.06;5111421;28;20112;-55
2022/11/01 08:43:01;;;;;;;11.75;2.28;;;;;;;14.37;100.00;101177.69;5110100;28;20402;-53
2022/11/01 08:45:31;;;;;;;11.20;1.80;;;;;;;14.50;100.00;101182.88;5112684;28;20417;-52
2022/11/01 08:48:02;;;;;;;13.85;2.45;;;;;;;14.43;100.00;101186.13;5112134;28;20074;-55
2022/11/01 08:50:32;;;;;;;12.40;2.20;;;;;;;14.33;100.00;101194.75;5113601;28;20093;-53
2022/11/01 08:53:04;;;;;;;18.02;2.47;;;;;;;14.46;100.00;101199.13;5113352;28;20462;-54
2022/11/01 08:55:34;;;;;;;13.98;2.22;;;;;;;14.50;100.00;101189.97;5113437;28;20039;-55
2022/11/01 08:58:06;;;;;;;13.70;1.80;;;;;;;14.56;100.00;101200.13;5113393;28;20543;-53
2022/11/01 09:00:36;;;;;;;10.65;1.85;;;;;;;14.63;100.00;101195.19;5109879;28;20061;-54
2022/11/01 09:03:05;;;;;;;12.27;2.38;;;;;;;14.75;100.00;101198.72;5109635;27;20440;-54
2022/11/01 09:05:33;;;;;;;11.98;2.22;;;;;;;14.79;100.00;101208.97;5110779;28;20486;-54
2022/11/01 09:08:04;;;;;;;15.70;2.20;;;;;;;14.82;100.00;101207.84;5113077;28;20052;-57
2022/11/01 09:10:33;;;;;;;10.73;2.20;;;;;;;14.89;100.00;101203.78;5113045;28;20035;-57
2022/11/01 09:13:02;;;;;;;12.27;2.33;;;;;;;14.93;100.00;101207.88;5112775;28;20048;-58
2022/11/01 09:15:33;;;;;;;13.13;1.80;;;;;;;14.95;100.00;101213.06;5109790;28;20267;-57
2022/11/01 09:18:08;;;;;;;12.98;1.88;;;;;;;15.05;100.00;101211.38;5110561;28;20055;-57
2022/11/01 09:20:37;;;;;;;12.57;2.08;;;;;;;15.12;100.00;101219.66;5112795;28;20078;-57
2022/11/01 09:23:05;;;;;;;14.35;2.22;;;;;;;15.01;100.00;101210.78;5112867;28;20539;-55
2022/11/01 09:25:34;;;;;;;13.32;2.03;;;;;;;15.11;100.00;101220.66;5112721;28;20044;-57
2022/11/01 09:28:02;;;;;;;15.30;2.28;;;;;;;15.31;100.00;101229.66;5112767;28;20040;-57
2022/11/01 09:30:30;;;;;;;11.85;2.33;;;;;;;15.45;100.00;101223.28;5109043;28;20089;-58
2022/11/01 09:32:58;;;;;;;9.68;1.55;;;;;;;15.54;100.00;101230.47;5109679;28;20044;-57
2022/11/01 09:35:29;;;;;;;10.38;2.03;;;;;;;15.54;100.00;101228.69;5108891;28;20051;-57
2022/11/01 09:37:58;;;;;;;10.80;2.35;;;;;;;15.81;100.00;101229.25;5109441;28;20413;-57
2022/11/01 09:40:28;;;;;;;10.95;2.20;;;;;;;15.95;100.00;101233.44;5107384;28;20043;-54
2022/11/01 09:42:57;;;;;;;9.57;1.92;;;;;;;16.05;100.00;101235.22;5110889;28;20483;-54
2022/11/01 09:45:32;;;;;;;10.43;2.15;;;;;;;16.28;100.00;101245.75;5112658;28;20043;-53
2022/11/01 09:48:03;;;;;;;13.38;2.20;;;;;;;16.25;100.00;101253.09;5112598;28;20521;-54
2022/11/01 09:50:37;;;;;;;13.98;2.10;;;;;;;16.34;100.00;101241.72;5112241;28;20040;-54
2022/11/01 09:53:13;;;;;;;10.57;2.60;;;;;;;16.64;100.00;101237.47;5112336;28;20043;-55
2022/11/01 09:55:48;;;;;;;11.35;2.10;;;;;;;16.53;99.93;101254.31;5111009;28;20146;-54
2022/11/01 09:58:27;;;;;;;18.67;2.42;;;;;;;16.72;98.73;101254.44;5112409;28;20039;-55
2022/11/01 10:01:05;;;;;;;10.70;1.90;;;;;;;16.49;92.61;101259.03;5113667;28;20073;-55
2022/11/01 10:03:49;;;;;;;11.40;2.10;;;;;;;16.79;89.91;101262.72;5115330;28;20065;-58
2022/11/01 10:06:23;;;;;;;12.65;2.15;;;;;;;16.88;89.20;101275.22;5113625;28;20104;-57
2022/11/01 10:09:02;;;;;;;9.93;2.25;;;;;;;16.88;90.03;101288.50;5111241;28;20063;-58
2022/11/01 10:11:43;;;;;;;14.32;2.30;;;;;;;17.27;87.54;101293.22;5113028;28;20824;-58
2022/11/01 10:14:26;;;;;;;10.25;2.03;;;;;;;17.93;80.03;101293.72;5113071;28;20490;-57
2022/11/01 10:17:04;;;;;;;12.25;2.40;;;;;;;17.52;78.59;101299.03;5114594;28;20093;-59
2022/11/01 10:19:34;;;;;;;12.70;2.38;;;;;;;17.73;78.47;101296.31;5112761;28;20498;-58
2022/11/01 10:22:10;;;;;;;13.00;2.00;;;;;;;17.88;75.49;101312.75;5113179;28;20093;-57
2022/11/01 10:24:44;;;;;;;11.45;2.15;;;;;;;18.02;75.78;101312.38;5111490;28;20055;-57
2022/11/01 10:27:18;;;;;;;11.00;2.00;;;;;;;18.34;75.94;101321.13;5114284;28;20043;-57
2022/11/01 10:29:50;;;;;;;10.57;1.98;;;;;;;18.01;74.00;101320.50;5116161;28;20036;-54
2022/11/01 10:32:28;;;;;;;15.77;2.33;;;;;;;17.60;73.90;101324.97;5115051;28;20401;-54
2022/11/01 10:35:03;;;;;;;9.65;2.03;;;;;;;17.81;75.47;101325.75;5112754;28;20052;-54
2022/11/01 10:37:39;;;;;;;13.63;2.30;;;;;;;18.20;73.60;101335.66;5112785;28;20070;-57
2022/11/01 10:40:25;;;;;;;;;;;;;;;18.30;73.75;101323.22;5116383;28;20078;-57
2022/11/01 10:42:54;;;;;;;9.55;1.90;;;;;;;18.39;72.02;101330.38;5115271;28;20999;-57
2022/11/01 10:45:22;;;;;;;9.20;2.08;;;;;;;18.78;72.43;101331.34;5111349;28;20052;-57
2022/11/01 10:47:56;;;;;;;12.65;2.17;;;;;;;18.82;70.54;101328.22;5112917;28;20096;-58
2022/11/01 10:50:30;;;;;;;10.80;2.00;;;;;;;18.71;69.84;101325.72;5114691;28;20401;-57
2022/11/01 10:53:02;;;;;;;9.20;2.03;;;;;;;18.97;70.41;101319.84;5115346;28;20050;-58
2022/11/01 10:55:39;;;;;;;11.52;1.88;;;;;;;19.16;70.88;101313.63;5115379;28;20047;-58
2022/11/01 10:58:16;;;;;;;9.55;1.95;;;;;;;19.37;67.55;101308.94;5115575;28;20129;-55
2022/11/01 11:00:46;;;;;;;12.98;2.50;;;;;;;18.91;68.96;101313.25;5115544;28;20047;-58
2022/11/01 11:03:19;;;;;;;12.25;2.25;;;;;;;18.94;69.09;101310.31;5114166;28;20052;-56
2022/11/01 11:05:49;;;;;;;13.18;2.20;;;;;;;19.20;68.34;101315.84;5115582;28;20055;-55
2022/11/01 11:08:22;;;;;;;12.73;1.98;;;;;;;19.50;68.26;101318.41;5113828;28;20497;-56
2022/11/01 11:10:51;;;;;;;8.35;1.63;;;;;;;19.87;67.68;101307.69;5111062;28;20457;-56
2022/11/01 11:13:22;;;;;;;9.65;1.65;;;;;;;19.26;67.45;101303.75;5113285;28;20450;-56
2022/11/01 11:15:53;;;;;;;8.57;2.05;;;;;;;19.35;68.34;101308.22;5115170;28;20451;-55
2022/11/01 11:18:25;;;;;;;10.88;2.00;;;;;;;19.14;67.28;101302.25;5113983;28;20059;-56
2022/11/01 11:20:57;;;;;;;12.98;2.38;;;;;;;19.34;68.80;101313.69;5112387;28;20052;-56
2022/11/01 11:23:29;;;;;;;15.32;2.10;;;;;;;19.30;68.22;101312.31;5113426;28;20089;-56
2022/11/01 11:26:02;;;;;;;8.88;2.45;;;;;;;19.29;69.27;101310.63;5115226;28;20039;-57
2022/11/01 11:28:33;;;;;;;14.18;2.40;;;;;;;18.92;69.93;101320.25;5115004;28;20543;-56
2022/11/01 11:31:13;;;;;;;9.73;1.60;;;;;;;18.87;69.81;101320.66;5115014;28;20051;-56
2022/11/01 11:33:48;;;;;;;15.48;2.25;;;;;;;18.84;70.51;101328.94;5114851;28;20044;-55
2022/11/01 11:36:18;;;;;;;10.10;2.25;;;;;;;18.88;69.20;101327.72;5112647;28;20468;-57
2022/11/01 11:38:50;;;;;;;8.55;1.75;;;;;;;18.49;70.73;101329.53;5110407;28;20039;-57
2022/11/01 11:41:30;;;;;;;12.88;2.22;;;;;;;18.10;72.66;101324.16;5114151;28;20074;-56
2022/11/01 11:43:58;;;;;;;13.25;2.33;;;;;;;17.94;72.56;101312.22;5111549;28;20090;-55
2022/11/01 11:46:27;;;;;;;8.98;1.73;;;;;;;17.70;72.85;101321.38;5111362;28;20148;-56